Time;durP1;ratioP1;P1;durP2;ratioP2;P2;SDS_P1;SDS_P2;PMS_P1;PMS_P2;Temp;Humidity;BMP_temperature;BMP_pressure;BME280_temperature;BME280_humidity;BME280_pressure;Samples;Min_cycle;Max_cycle;Signal;HPM_P1;HPM_P2
2022/01/29 00:00:44;;;;;;;2.88;1.10;;;20.40;45.30;;;;;;5030326;28;20729;-80
2022/01/29 00:03:10;;;;;;;3.50;1.50;;;20.40;45.30;;;;;;5046980;28;20056;-80
2022/01/29 00:05:35;;;;;;;4.53;1.65;;;20.40;45.30;;;;;;5047872;28;20547;-80
2022/01/29 00:08:02;;;;;;;4.45;1.25;;;20.40;45.30;;;;;;5030375;28;20464;-80
2022/01/29 00:10:28;;;;;;;3.05;1.38;;;20.40;45.40;;;;;;5047873;28;20037;-80
2022/01/29 00:12:53;;;;;;;4.63;1.50;;;20.40;45.40;;;;;;5047771;28;20477;-80
2022/01/29 00:15:20;;;;;;;3.10;1.60;;;20.40;45.40;;;;;;5047494;28;20071;-80
2022/01/29 00:17:45;;;;;;;3.70;1.40;;;20.30;45.80;;;;;;5047457;28;20404;-80
2022/01/29 00:20:11;;;;;;;3.67;1.30;;;20.20;45.30;;;;;;5047419;28;20060;-80
2022/01/29 00:22:37;;;;;;;3.33;1.70;;;20.30;45.40;;;;;;5046750;28;20401;-80
2022/01/29 00:25:03;;;;;;;4.07;1.42;;;20.30;45.40;;;;;;5047276;28;20592;-80
2022/01/29 00:27:33;;;;;;;3.33;1.40;;;20.30;45.40;;;;;;5047309;28;20060;-80
2022/01/29 00:30:02;;;;;;;3.63;1.60;;;20.30;45.40;;;;;;5046986;28;20599;-80
2022/01/29 00:32:29;;;;;;;4.35;1.60;;;20.30;45.40;;;;;;5047517;28;20068;-80
2022/01/29 00:34:54;;;;;;;4.25;1.70;;;20.20;45.40;;;;;;5047311;28;20797;-80
2022/01/29 00:37:20;;;;;;;3.03;1.55;;;20.20;45.40;;;;;;5046980;28;20065;-80
2022/01/29 00:39:45;;;;;;;4.10;1.65;;;20.20;45.40;;;;;;5047264;28;20099;-80
2022/01/29 00:42:11;;;;;;;3.17;1.60;;;20.20;45.50;;;;;;5047595;28;20052;-80
2022/01/29 00:44:36;;;;;;;4.00;1.65;;;20.20;45.40;;;;;;5047078;28;20060;-80
2022/01/29 00:47:02;;;;;;;4.10;1.83;;;20.20;45.40;;;;;;5047139;28;20072;-80
2022/01/29 00:49:28;;;;;;;3.85;1.85;;;20.20;45.40;;;;;;5046838;28;20041;-80
2022/01/29 00:51:53;;;;;;;4.57;2.33;;;20.20;45.50;;;;;;5047303;28;20063;-80
2022/01/29 00:54:19;;;;;;;3.45;1.90;;;20.10;46.10;;;;;;5047282;28;20085;-80
2022/01/29 00:56:44;;;;;;;4.20;1.58;;;20.10;45.40;;;;;;5046882;28;20648;-80
2022/01/29 00:59:10;;;;;;;3.42;1.67;;;20.30;45.60;;;;;;5047054;28;20041;-80
2022/01/29 01:01:35;;;;;;;3.70;1.92;;;20.10;45.50;;;;;;5047197;28;20404;-80
2022/01/29 01:04:01;;;;;;;3.50;1.73;;;20.10;45.50;;;;;;5046592;28;20099;-80
2022/01/29 01:06:37;;;;;;;3.75;1.60;;;20.10;45.60;;;;;;5047770;28;20045;-80
2022/01/29 01:09:02;;;;;;;4.03;1.88;;;20.10;45.50;;;;;;5028486;28;20083;-80
2022/01/29 01:11:28;;;;;;;3.90;1.60;;;20.10;45.50;;;;;;5046764;28;20500;-80
2022/01/29 01:13:53;;;;;;;4.47;2.05;;;20.10;45.50;;;;;;5048821;28;20059;-80
2022/01/29 01:16:19;;;;;;;3.95;2.00;;;20.00;45.50;;;;;;5043722;28;20607;-80
2022/01/29 01:18:44;;;;;;;2.90;1.70;;;20.00;45.50;;;;;;5050338;28;20061;-80
2022/01/29 01:21:10;;;;;;;3.53;2.03;;;20.00;45.50;;;;;;5050377;28;20136;-80
2022/01/29 01:23:36;;;;;;;4.63;2.05;;;20.00;45.50;;;;;;5050311;28;20123;-80
2022/01/29 01:26:02;;;;;;;3.85;1.80;;;20.00;45.50;;;;;;5050355;28;20076;-80
2022/01/29 01:28:28;;;;;;;4.22;1.90;;;20.00;45.60;;;;;;5048805;28;20047;-80
2022/01/29 01:30:53;;;;;;;4.43;1.90;;;20.00;45.60;;;;;;5050704;28;20491;-80
2022/01/29 01:33:19;;;;;;;3.90;1.85;;;20.00;45.60;;;;;;5050193;28;20126;-80
2022/01/29 01:35:49;;;;;;;3.67;2.08;;;19.90;45.50;;;;;;5050133;28;20408;-80
2022/01/29 01:38:20;;;;;;;4.07;1.80;;;19.90;45.50;;;;;;4987313;28;20054;-80
2022/01/29 01:40:51;;;;;;;4.50;1.70;;;19.90;45.60;;;;;;5013572;28;20176;-80
2022/01/29 01:43:17;;;;;;;3.00;1.50;;;19.90;45.60;;;;;;5014044;28;20049;-80
2022/01/29 01:45:43;;;;;;;4.53;2.08;;;20.30;45.80;;;;;;5013780;28;20489;-80
2022/01/29 01:48:08;;;;;;;3.92;1.77;;;19.90;45.60;;;;;;5015582;28;20509;-80
2022/01/29 01:50:34;;;;;;;3.40;1.73;;;19.90;45.60;;;;;;5029996;28;20041;-80
2022/01/29 01:52:59;;;;;;;4.15;1.90;;;19.90;45.60;;;;;;5031387;28;20509;-80
2022/01/29 01:55:25;;;;;;;4.32;2.00;;;19.90;45.60;;;;;;5033266;28;20052;-80
2022/01/29 01:57:50;;;;;;;4.20;1.92;;;20.20;45.80;;;;;;5033311;28;20048;-80
2022/01/29 02:00:16;;;;;;;3.03;1.55;;;19.90;45.70;;;;;;5032514;28;20483;-80
2022/01/29 02:02:42;;;;;;;3.85;1.83;;;19.90;45.70;;;;;;5033049;28;20049;-82
2022/01/29 02:05:08;;;;;;;4.07;1.90;;;19.90;45.70;;;;;;5033345;28;20068;-80
2022/01/29 02:07:34;;;;;;;3.90;1.80;;;19.80;45.60;;;;;;5049210;28;20094;-81
2022/01/29 02:10:00;;;;;;;3.08;1.77;;;20.10;45.80;;;;;;5032823;28;20057;-81
2022/01/29 02:12:28;;;;;;;3.58;1.50;;;19.80;45.70;;;;;;5032889;28;20056;-80
2022/01/29 02:14:56;;;;;;;3.22;1.50;;;19.80;45.70;;;;;;5032274;28;20047;-80
2022/01/29 02:17:22;;;;;;;3.55;1.63;;;19.80;45.70;;;;;;5032561;28;20048;-81
2022/01/29 02:19:47;;;;;;;3.20;1.75;;;19.80;45.70;;;;;;5032995;28;20136;-81
2022/01/29 02:22:13;;;;;;;3.70;1.85;;;19.80;45.70;;;;;;5032529;28;20059;-81
2022/01/29 02:24:38;;;;;;;3.42;1.80;;;19.80;45.70;;;;;;5032563;28;20053;-81
2022/01/29 02:27:04;;;;;;;4.90;1.83;;;19.70;45.70;;;;;;5032977;28;20774;-81
2022/01/29 02:29:33;;;;;;;4.13;1.70;;;19.80;45.80;;;;;;5032505;28;20061;-81
2022/01/29 02:31:58;;;;;;;5.25;2.42;;;19.70;45.70;;;;;;5032737;28;20501;-81
2022/01/29 02:34:24;;;;;;;3.35;1.80;;;19.70;45.70;;;;;;5032664;28;20137;-81
2022/01/29 02:36:53;;;;;;;3.30;1.77;;;19.70;45.70;;;;;;5032237;28;20084;-81
2022/01/29 02:39:19;;;;;;;4.93;1.88;;;19.70;45.70;;;;;;5032452;28;20059;-80
2022/01/29 02:41:45;;;;;;;3.45;1.80;;;19.70;45.70;;;;;;5032536;28;20053;-81
2022/01/29 02:44:18;;;;;;;3.03;1.58;;;20.00;45.90;;;;;;5032211;28;20094;-81
2022/01/29 02:46:52;;;;;;;3.22;1.63;;;19.70;45.80;;;;;;5032826;28;20501;-81
2022/01/29 02:49:21;;;;;;;3.47;1.30;;;19.60;45.70;;;;;;5031831;28;20064;-81
2022/01/29 02:51:51;;;;;;;3.85;1.60;;;19.70;45.80;;;;;;5019594;28;20074;-81
2022/01/29 02:54:17;;;;;;;3.38;1.85;;;20.30;46.10;;;;;;5045595;28;20053;-81
2022/01/29 02:56:42;;;;;;;3.38;1.75;;;19.60;45.80;;;;;;5011940;28;20065;-81
2022/01/29 02:59:08;;;;;;;3.20;1.67;;;19.60;45.80;;;;;;5012287;28;20045;-80
2022/01/29 03:01:34;;;;;;;4.55;1.67;;;19.60;45.80;;;;;;5012724;28;20037;-81
2022/01/29 03:03:59;;;;;;;3.25;1.75;;;19.60;45.80;;;;;;5011900;28;20508;-81
2022/01/29 03:06:25;;;;;;;4.18;1.73;;;19.60;45.80;;;;;;5011977;28;20458;-81
2022/01/29 03:08:50;;;;;;;3.30;1.40;;;19.60;45.80;;;;;;5012560;28;20042;-80
2022/01/29 03:11:19;;;;;;;3.15;1.50;;;19.60;45.90;;;;;;5011486;28;20728;-81
2022/01/29 03:13:51;;;;;;;3.67;1.88;;;19.60;45.90;;;;;;5045003;28;20143;-81
2022/01/29 03:16:17;;;;;;;3.60;1.92;;;19.60;45.90;;;;;;5012129;28;20575;-80
2022/01/29 03:18:42;;;;;;;3.42;1.80;;;19.60;45.90;;;;;;5011689;28;20045;-80
2022/01/29 03:21:08;;;;;;;3.55;1.40;;;19.60;45.90;;;;;;5011885;28;20053;-81
2022/01/29 03:23:33;;;;;;;4.07;1.90;;;19.60;45.90;;;;;;5012110;28;20057;-81
2022/01/29 03:26:00;;;;;;;4.20;1.83;;;20.20;46.20;;;;;;5011376;28;20649;-81
2022/01/29 03:28:26;;;;;;;3.33;1.55;;;19.50;45.90;;;;;;5044638;28;20065;-81
2022/01/29 03:30:52;;;;;;;2.47;1.40;;;19.50;45.90;;;;;;5011784;28;20091;-81
2022/01/29 03:33:17;;;;;;;2.10;1.23;;;19.50;46.00;;;;;;5011203;28;20152;-80
2022/01/29 03:35:43;;;;;;;3.25;1.70;;;19.50;46.00;;;;;;5011959;28;20053;-80
2022/01/29 03:38:08;;;;;;;3.03;1.55;;;19.50;45.90;;;;;;5010834;28;20528;-81
2022/01/29 03:40:35;;;;;;;2.90;1.40;;;19.50;45.90;;;;;;5028945;28;20042;-80
2022/01/29 03:43:04;;;;;;;3.35;1.55;;;19.50;46.00;;;;;;5044752;28;20045;-80
2022/01/29 03:45:30;;;;;;;3.40;1.70;;;19.50;46.00;;;;;;5013913;28;20071;-81
2022/01/29 03:47:56;;;;;;;2.78;1.58;;;19.50;46.00;;;;;;5011339;28;20412;-80
2022/01/29 03:50:21;;;;;;;3.13;1.70;;;19.50;46.00;;;;;;4995740;28;20046;-81
2022/01/29 03:52:47;;;;;;;2.75;1.60;;;19.50;46.00;;;;;;4975643;28;20406;-81
2022/01/29 03:55:12;;;;;;;3.67;1.73;;;19.50;46.00;;;;;;4991799;28;20485;-81
2022/01/29 03:57:38;;;;;;;2.83;1.65;;;19.50;46.00;;;;;;4991866;28;20113;-80
2022/01/29 04:00:05;;;;;;;2.95;1.38;;;19.60;46.10;;;;;;4991545;28;20050;-80
2022/01/29 04:02:31;;;;;;;3.45;1.67;;;19.50;46.00;;;;;;5024320;28;20071;-80
2022/01/29 04:04:56;;;;;;;2.85;1.30;;;19.50;46.00;;;;;;4992027;28;20045;-81
2022/01/29 04:07:22;;;;;;;3.15;1.52;;;19.50;46.00;;;;;;4991490;28;20084;-81
2022/01/29 04:09:50;;;;;;;3.00;1.58;;;19.50;46.00;;;;;;4991819;28;20046;-81
2022/01/29 04:12:16;;;;;;;3.22;1.83;;;19.70;46.10;;;;;;4992194;28;20505;-80
2022/01/29 04:14:41;;;;;;;2.67;1.25;;;19.50;46.00;;;;;;4991161;28;20133;-80
2022/01/29 04:17:07;;;;;;;3.00;1.50;;;19.50;46.00;;;;;;4991601;28;20414;-80
2022/01/29 04:19:33;;;;;;;2.83;1.30;;;19.50;46.00;;;;;;4991945;28;20038;-80
2022/01/29 04:21:58;;;;;;;3.40;1.60;;;19.50;46.00;;;;;;4974920;28;20045;-80
2022/01/29 04:24:24;;;;;;;2.45;1.30;;;19.50;46.00;;;;;;4991384;28;20038;-80
2022/01/29 04:26:49;;;;;;;2.70;1.40;;;19.50;46.00;;;;;;4991756;28;20054;-80
2022/01/29 04:29:15;;;;;;;2.10;1.17;;;19.50;46.00;;;;;;4991181;28;20572;-81
2022/01/29 04:34:18;;;;;;;2.72;1.40;;;19.50;46.00;;;;;;4991320;28;20098;-80
2022/01/29 04:36:44;;;;;;;2.53;1.17;;;19.50;46.10;;;;;;4991256;28;20046;-80
2022/01/29 04:39:10;;;;;;;2.97;1.17;;;19.50;46.00;;;;;;4990984;28;20057;-80
2022/01/29 04:41:35;;;;;;;2.47;1.25;;;19.50;46.00;;;;;;4990730;28;20058;-80
2022/01/29 04:44:01;;;;;;;3.47;1.75;;;19.50;46.00;;;;;;4991018;28;20050;-81
2022/01/29 04:46:26;;;;;;;3.08;1.30;;;19.50;46.10;;;;;;4991316;28;20049;-80
2022/01/29 04:48:53;;;;;;;2.58;1.52;;;19.40;46.00;;;;;;4992936;28;20073;-80
2022/01/29 04:51:19;;;;;;;3.58;1.30;;;19.50;46.10;;;;;;4997531;28;20050;-80
2022/01/29 04:53:45;;;;;;;2.75;1.30;;;19.40;46.00;;;;;;4997761;28;20116;-81
2022/01/29 04:56:10;;;;;;;3.08;1.55;;;19.40;46.00;;;;;;4994957;28;20042;-80
2022/01/29 04:58:36;;;;;;;2.70;1.40;;;19.40;46.00;;;;;;4990681;28;20092;-80
2022/01/29 05:01:02;;;;;;;2.00;1.10;;;19.50;46.10;;;;;;4994340;28;20064;-80
2022/01/29 05:03:28;;;;;;;2.95;1.38;;;19.40;46.10;;;;;;5010962;28;20489;-80
2022/01/29 05:05:54;;;;;;;2.33;1.00;;;19.50;46.10;;;;;;5012551;28;20107;-80
2022/01/29 05:08:20;;;;;;;2.45;1.45;;;19.50;46.20;;;;;;5002120;28;20088;-80
2022/01/29 05:10:46;;;;;;;3.55;1.42;;;19.50;46.20;;;;;;5011814;28;20081;-81
2022/01/29 05:13:15;;;;;;;2.15;1.10;;;19.50;46.20;;;;;;5014112;28;20050;-80
2022/01/29 05:26:54;;;;;;;2.55;1.02;;;19.60;46.40;;;;;;5016448;28;20049;-81
2022/01/29 05:29:20;;;;;;;2.55;1.10;;;19.60;46.40;;;;;;5004520;28;20065;-80
2022/01/29 05:31:45;;;;;;;1.98;0.85;;;19.60;46.40;;;;;;5013371;28;20503;-80
2022/01/29 05:34:11;;;;;;;2.92;1.13;;;19.60;46.40;;;;;;5013911;28;20046;-81
2022/01/29 05:36:37;;;;;;;2.33;1.08;;;19.70;46.50;;;;;;5014338;28;20049;-81
2022/01/29 05:39:03;;;;;;;1.98;0.90;;;19.70;46.50;;;;;;5012251;28;20059;-81
2022/01/29 05:41:29;;;;;;;1.63;0.95;;;19.70;46.50;;;;;;5013947;28;20057;-81
2022/01/29 05:43:55;;;;;;;3.67;1.08;;;19.80;46.50;;;;;;5009479;28;20724;-81
2022/01/29 05:46:20;;;;;;;2.67;1.23;;;19.80;46.50;;;;;;5013688;28;20512;-81
2022/01/29 05:48:46;;;;;;;1.65;0.80;;;20.60;46.90;;;;;;5013572;28;20104;-81
2022/01/29 05:51:11;;;;;;;2.00;0.80;;;19.80;46.40;;;;;;5013796;28;20389;-81
2022/01/29 05:53:37;;;;;;;1.88;0.80;;;19.80;46.40;;;;;;5033088;28;20076;-80
2022/01/29 05:56:03;;;;;;;1.83;0.80;;;19.80;46.30;;;;;;5013674;28;20057;-80
2022/01/29 05:58:28;;;;;;;1.83;0.75;;;19.90;46.40;;;;;;5011674;28;20052;-81
2022/01/29 06:00:54;;;;;;;1.98;0.75;;;19.80;46.30;;;;;;5011851;28;20077;-81
2022/01/29 06:03:19;;;;;;;1.58;0.80;;;20.50;46.60;;;;;;5013722;28;20053;-81
2022/01/29 06:05:45;;;;;;;1.80;0.80;;;19.90;46.30;;;;;;5013710;28;20053;-81
2022/01/29 06:08:10;;;;;;;1.95;0.70;;;19.90;46.30;;;;;;5012685;28;20038;-81
2022/01/29 06:10:36;;;;;;;2.45;0.80;;;20.00;46.30;;;;;;5013459;28;20139;-81
2022/01/29 06:13:12;;;;;;;2.50;1.00;;;20.00;46.30;;;;;;5013063;28;20052;-81
2022/01/29 06:15:42;;;;;;;2.25;1.13;;;20.00;46.30;;;;;;5013238;28;20049;-80
2022/01/29 06:18:15;;;;;;;2.15;0.80;;;20.00;46.30;;;;;;5013214;28;20075;-80
2022/01/29 06:20:42;;;;;;;1.95;0.80;;;20.00;46.20;;;;;;5012437;28;20048;-80
2022/01/29 06:23:09;;;;;;;1.83;0.80;;;20.00;46.20;;;;;;5013082;28;20057;-81
2022/01/29 06:25:34;;;;;;;2.50;0.82;;;20.00;46.20;;;;;;5030787;28;20049;-81
2022/01/29 06:28:00;;;;;;;1.38;0.60;;;20.10;46.20;;;;;;5012545;28;20452;-82
2022/01/29 06:30:25;;;;;;;3.05;0.80;;;20.10;46.20;;;;;;5008568;28;20077;-82
2022/01/29 06:32:51;;;;;;;1.67;0.70;;;20.10;47.00;;;;;;5001040;28;20079;-82
2022/01/29 06:35:16;;;;;;;2.15;0.80;;;20.10;46.20;;;;;;5009823;28;20405;-82
2022/01/29 06:37:42;;;;;;;2.53;0.63;;;20.10;46.20;;;;;;5012462;28;20049;-82
2022/01/29 06:40:08;;;;;;;2.55;0.73;;;20.20;46.20;;;;;;5011892;28;20056;-82
2022/01/29 06:42:33;;;;;;;1.50;0.70;;;20.20;46.20;;;;;;4996393;28;20042;-82
2022/01/29 06:44:59;;;;;;;3.25;0.90;;;20.20;46.20;;;;;;5012315;28;20060;-83
2022/01/29 06:47:24;;;;;;;1.80;0.70;;;20.20;46.20;;;;;;5025271;28;20404;-83
2022/01/29 06:49:50;;;;;;;1.45;0.60;;;20.20;46.20;;;;;;5001858;28;20045;-82
2022/01/29 06:52:15;;;;;;;1.75;0.77;;;20.20;46.20;;;;;;4313618;28;20004489;-82
2022/01/29 06:54:41;;;;;;;1.25;0.50;;;20.30;46.20;;;;;;5007792;28;20137;-82
2022/01/29 06:57:07;;;;;;;1.55;0.60;;;20.30;46.20;;;;;;5001419;28;20033;-82
2022/01/29 06:59:32;;;;;;;1.30;0.60;;;20.30;46.20;;;;;;4985165;28;20801;-82
2022/01/29 07:01:58;;;;;;;2.15;0.70;;;20.30;46.20;;;;;;4973172;28;20121;-82
2022/01/29 07:04:23;;;;;;;1.42;0.63;;;20.30;46.10;;;;;;4988569;28;20698;-82
2022/01/29 07:06:49;;;;;;;1.10;0.60;;;20.30;46.10;;;;;;4967012;28;20483;-81
2022/01/29 07:09:14;;;;;;;1.67;0.80;;;20.30;46.10;;;;;;4983355;28;20069;-83
2022/01/29 07:11:44;;;;;;;1.70;0.57;;;20.40;46.20;;;;;;4988670;28;20042;-79
2022/01/29 07:14:16;;;;;;;1.63;0.70;;;20.40;46.10;;;;;;4956621;28;20510;-80
2022/01/29 07:16:43;;;;;;;1.45;0.60;;;20.40;46.00;;;;;;4969422;28;20093;-81
2022/01/29 07:19:08;;;;;;;2.38;0.70;;;20.40;46.00;;;;;;4983494;28;20065;-80
2022/01/29 07:21:34;;;;;;;1.63;0.70;;;20.50;46.00;;;;;;4973471;28;20109;-80
2022/01/29 07:23:59;;;;;;;1.70;0.65;;;20.50;46.10;;;;;;4991878;28;20506;-79
2022/01/29 07:26:25;;;;;;;2.08;0.60;;;20.50;46.00;;;;;;4989284;28;20510;-79
2022/01/29 07:28:51;;;;;;;1.27;0.70;;;20.50;46.00;;;;;;4988879;28;20038;-82
2022/01/29 07:31:16;;;;;;;1.42;0.50;;;20.50;46.00;;;;;;4984291;28;20077;-82
2022/01/29 07:33:42;;;;;;;1.58;0.60;;;20.50;46.00;;;;;;4971372;28;20129;-82
2022/01/29 07:36:07;;;;;;;1.00;0.60;;;20.50;46.00;;;;;;4976611;28;20050;-82
2022/01/29 07:38:33;;;;;;;1.88;0.57;;;21.30;46.30;;;;;;5001528;28;20065;-82
2022/01/29 07:40:58;;;;;;;1.67;0.60;;;20.50;45.90;;;;;;4992471;28;20054;-82
2022/01/29 07:43:24;;;;;;;1.60;0.63;;;20.50;45.90;;;;;;4991949;28;20058;-82
2022/01/29 07:45:49;;;;;;;2.75;0.73;;;20.50;45.80;;;;;;4991974;28;20092;-82
2022/01/29 07:48:15;;;;;;;2.08;0.60;;;20.50;45.80;;;;;;4992040;28;20049;-82
2022/01/29 07:50:41;;;;;;;2.25;0.70;;;20.50;45.80;;;;;;4990515;28;20091;-82
2022/01/29 07:53:06;;;;;;;2.60;0.70;;;20.50;45.70;;;;;;4990896;28;20045;-82
2022/01/29 07:55:32;;;;;;;1.80;0.60;;;20.50;45.80;;;;;;4993549;28;20042;-81
2022/01/29 07:58:07;;;;;;;2.42;0.98;;;20.50;45.80;;;;;;5004990;28;20030;-81
2022/01/29 08:00:33;;;;;;;1.05;0.60;;;20.50;45.70;;;;;;5009527;28;20049;-81
2022/01/29 08:02:58;;;;;;;1.33;0.70;;;20.50;45.70;;;;;;4990107;28;20057;-82
2022/01/29 08:05:24;;;;;;;2.05;0.68;;;20.50;45.70;;;;;;5010163;28;20414;-81
2022/01/29 08:07:49;;;;;;;1.67;0.60;;;20.50;45.70;;;;;;5010579;28;20535;-82
2022/01/29 08:10:15;;;;;;;1.17;0.50;;;20.50;45.70;;;;;;5011180;28;20045;-82
2022/01/29 08:12:40;;;;;;;1.77;0.52;;;20.50;45.70;;;;;;5006364;28;20053;-80
2022/01/29 08:15:06;;;;;;;2.35;0.60;;;20.50;45.80;;;;;;5001018;28;20081;-79
2022/01/29 08:17:32;;;;;;;1.10;0.60;;;20.50;45.70;;;;;;5010685;28;20114;-80
2022/01/29 08:19:57;;;;;;;1.83;0.50;;;20.50;45.70;;;;;;5012588;28;20568;-80
2022/01/29 08:22:23;;;;;;;1.23;0.50;;;20.40;46.40;;;;;;5009066;28;20046;-80
2022/01/29 08:24:49;;;;;;;1.17;0.43;;;20.40;45.60;;;;;;5014113;28;20065;-80
2022/01/29 08:27:15;;;;;;;1.60;0.60;;;20.40;45.60;;;;;;5014838;28;20053;-80
2022/01/29 08:29:40;;;;;;;2.08;0.55;;;20.40;45.70;;;;;;5015302;28;20053;-80
2022/01/29 08:32:06;;;;;;;2.35;0.55;;;20.40;45.70;;;;;;5015023;28;20056;-80
2022/01/29 08:34:32;;;;;;;1.80;0.60;;;20.40;45.70;;;;;;5014352;28;20041;-80
2022/01/29 08:37:01;;;;;;;1.88;0.50;;;20.40;45.70;;;;;;4998376;28;20041;-80
2022/01/29 08:39:26;;;;;;;1.60;0.50;;;20.40;45.70;;;;;;5032503;28;20120;-80
2022/01/29 08:41:52;;;;;;;2.70;0.70;;;20.40;45.70;;;;;;5014248;28;20112;-79
2022/01/29 08:44:17;;;;;;;2.65;0.80;;;20.40;45.70;;;;;;5006651;28;20054;-80
2022/01/29 08:46:43;;;;;;;1.15;0.55;;;20.40;45.80;;;;;;5000569;28;20034;-80
2022/01/29 08:49:08;;;;;;;1.02;0.50;;;20.40;45.80;;;;;;4997409;28;20094;-80
2022/01/29 08:51:34;;;;;;;1.65;0.70;;;20.40;45.80;;;;;;4993712;28;20453;-80
2022/01/29 08:54:00;;;;;;;1.52;0.45;;;20.40;45.80;;;;;;4993877;28;20080;-81
2022/01/29 08:56:26;;;;;;;1.15;0.50;;;20.40;45.80;;;;;;4993246;28;20084;-79
2022/01/29 08:58:51;;;;;;;1.25;0.40;;;20.40;45.80;;;;;;4994120;28;20096;-80
2022/01/29 09:01:17;;;;;;;3.90;0.93;;;20.40;45.80;;;;;;4995153;28;20183;-79
2022/01/29 09:03:43;;;;;;;1.13;0.60;;;20.40;45.90;;;;;;5000191;28;20487;-80
2022/01/29 09:06:08;;;;;;;1.30;0.43;;;20.40;45.80;;;;;;5013389;28;20184;-80
2022/01/29 09:08:34;;;;;;;3.10;0.60;;;20.40;45.80;;;;;;5025008;28;20336;-80
2022/01/29 09:11:00;;;;;;;1.70;0.40;;;20.40;45.80;;;;;;4995829;28;20060;-80
2022/01/29 09:13:25;;;;;;;2.38;0.50;;;20.40;45.90;;;;;;4994886;28;20402;-79
2022/01/29 09:15:51;;;;;;;1.48;0.52;;;20.40;45.90;;;;;;4996215;28;20045;-80
2022/01/29 09:18:16;;;;;;;1.35;0.65;;;20.40;45.90;;;;;;4647824;28;10001589;-80
2022/01/29 09:20:43;;;;;;;3.03;0.52;;;20.40;45.90;;;;;;5027511;28;20400;-80
2022/01/29 09:23:08;;;;;;;1.73;0.50;;;20.40;45.90;;;;;;5011263;28;20057;-79
2022/01/29 09:25:36;;;;;;;1.88;0.50;;;20.40;45.90;;;;;;5023801;28;20103;-80
2022/01/29 09:28:05;;;;;;;0.93;0.40;;;20.40;46.00;;;;;;5014154;28;20131;-80
2022/01/29 09:30:31;;;;;;;1.60;0.40;;;20.40;45.90;;;;;;5012466;28;20628;-80
2022/01/29 09:32:57;;;;;;;1.05;0.40;;;20.40;46.00;;;;;;5006832;28;20049;-80
2022/01/29 09:35:22;;;;;;;1.10;0.40;;;20.40;45.90;;;;;;5002894;28;20080;-80
2022/01/29 09:37:48;;;;;;;1.25;0.45;;;20.40;45.90;;;;;;5014309;28;20060;-80
2022/01/29 09:40:14;;;;;;;1.70;0.30;;;20.40;46.00;;;;;;5013376;28;20060;-80
2022/01/29 09:42:40;;;;;;;1.90;0.43;;;20.40;45.90;;;;;;5014809;28;20053;-80
2022/01/29 09:45:11;;;;;;;1.00;0.40;;;20.40;45.90;;;;;;5011814;28;20142;-76
2022/01/29 09:47:38;;;;;;;0.85;0.30;;;20.40;45.90;;;;;;5048792;28;20041;-76
2022/01/29 09:50:05;;;;;;;5.68;1.15;;;20.40;46.00;;;;;;5014167;28;20172;-79
2022/01/29 09:52:30;;;;;;;2.47;0.80;;;20.40;46.30;;;;;;4993042;28;20045;-80
2022/01/29 09:54:56;;;;;;;3.05;0.77;;;20.40;46.40;;;;;;5029145;28;20056;-80
2022/01/29 09:57:21;;;;;;;2.75;0.80;;;20.40;46.40;;;;;;4995628;28;20049;-80
2022/01/29 09:59:48;;;;;;;1.92;0.60;;;20.30;46.50;;;;;;5012218;28;20049;-80
2022/01/29 10:02:16;;;;;;;3.55;0.70;;;20.30;46.50;;;;;;5009078;28;20053;-80
2022/01/29 10:04:46;;;;;;;2.15;0.60;;;20.30;46.60;;;;;;5011699;28;20045;-80
2022/01/29 10:07:31;;;;;;;2.17;0.80;;;20.30;46.60;;;;;;5010267;28;20049;-81
2022/01/29 10:09:58;;;;;;;2.90;0.60;;;20.30;46.70;;;;;;5011036;28;20048;-82
2022/01/29 10:12:27;;;;;;;2.05;0.60;;;20.30;46.70;;;;;;5012087;28;20136;-82
2022/01/29 10:14:58;;;;;;;2.80;0.70;;;20.30;46.80;;;;;;5009901;28;20048;-82
2022/01/29 10:17:43;;;;;;;3.78;0.60;;;20.30;46.80;;;;;;5012196;28;20041;-82
2022/01/29 10:20:10;;;;;;;2.92;0.70;;;20.30;46.80;;;;;;4992922;28;20046;-82
2022/01/29 10:22:36;;;;;;;2.17;0.60;;;20.30;46.90;;;;;;5008682;28;20081;-80
2022/01/29 10:25:16;;;;;;;1.75;0.57;;;20.30;47.00;;;;;;5017750;28;20072;-79
2022/01/29 10:28:09;;;;;;;2.83;0.77;;;20.30;47.00;;;;;;5011681;28;20045;-80
2022/01/29 10:30:56;;;;;;;2.85;0.57;;;20.30;47.00;;;;;;5011687;28;20049;-80
2022/01/29 10:33:23;;;;;;;1.95;0.60;;;20.30;47.10;;;;;;5003177;28;20125;-80
2022/01/29 10:36:15;;;;;;;1.33;0.32;;;20.30;47.10;;;;;;5011464;28;20045;-81
2022/01/29 10:38:41;;;;;;;1.98;0.40;;;20.30;47.20;;;;;;5000876;28;20044;-80
2022/01/29 10:41:22;;;;;;;2.95;0.85;;;20.20;47.20;;;;;;4993827;28;20054;-79
2022/01/29 10:43:54;;;;;;;2.03;0.57;;;20.20;47.20;;;;;;5002897;28;20045;-79
2022/01/29 10:46:27;;;;;;;3.50;0.40;;;20.20;47.30;;;;;;5010379;28;20045;-83
2022/01/29 10:48:53;;;;;;;2.50;0.45;;;20.20;47.40;;;;;;5004145;28;20068;-82
2022/01/29 10:51:18;;;;;;;2.15;0.40;;;20.30;47.20;;;;;;5028604;28;20491;-83
2022/01/29 10:53:44;;;;;;;0.95;0.30;;;20.30;47.10;;;;;;5010713;28;20120;-82
2022/01/29 10:56:09;;;;;;;1.92;0.40;;;20.30;47.00;;;;;;5008105;28;20096;-83
2022/01/29 10:58:44;;;;;;;0.63;0.30;;;20.40;46.90;;;;;;5021499;28;20061;-82
2022/01/29 11:01:21;;;;;;;2.75;0.40;;;20.40;46.90;;;;;;5018922;28;20840;-82
2022/01/29 11:03:47;;;;;;;2.35;0.43;;;20.40;46.80;;;;;;5017163;28;20053;-82
2022/01/29 11:06:16;;;;;;;2.08;0.43;;;20.40;46.70;;;;;;5013065;28;20048;-82
2022/01/29 11:08:42;;;;;;;1.80;0.52;;;20.50;46.70;;;;;;5013301;28;20092;-82
2022/01/29 11:11:09;;;;;;;1.67;0.30;;;20.50;46.70;;;;;;5045557;28;20052;-82
2022/01/29 11:13:37;;;;;;;1.23;0.30;;;20.50;46.70;;;;;;5044999;28;20096;-82
2022/01/29 11:16:03;;;;;;;2.03;0.40;;;20.50;46.70;;;;;;5011930;28;20558;-82
2022/01/29 11:18:29;;;;;;;1.98;0.40;;;20.50;46.60;;;;;;5027890;28;20527;-82
2022/01/29 11:20:54;;;;;;;1.73;0.40;;;20.50;46.60;;;;;;5012552;28;20045;-82
2022/01/29 11:23:20;;;;;;;1.92;0.30;;;20.50;46.60;;;;;;4995021;28;20049;-83
2022/01/29 11:25:46;;;;;;;0.90;0.20;;;20.50;46.60;;;;;;5028133;28;20056;-82
2022/01/29 11:28:17;;;;;;;1.13;0.35;;;20.50;46.50;;;;;;5011223;28;20352;-82
2022/01/29 11:30:44;;;;;;;2.03;0.30;;;20.50;46.50;;;;;;5010985;28;20067;-82
2022/01/29 11:33:10;;;;;;;0.95;0.28;;;20.50;46.50;;;;;;5011882;28;20456;-83
2022/01/29 11:35:57;;;;;;;2.25;0.38;;;20.50;46.50;;;;;;5011591;28;20053;-82
2022/01/29 11:38:27;;;;;;;1.65;0.40;;;21.00;46.70;;;;;;5009359;28;20144;-82
2022/01/29 11:40:58;;;;;;;1.33;0.30;;;20.60;46.50;;;;;;5011703;28;20049;-82
2022/01/29 11:43:27;;;;;;;1.15;0.30;;;20.60;46.50;;;;;;5011597;28;20045;-82
2022/01/29 11:46:07;;;;;;;1.25;0.30;;;20.60;46.50;;;;;;5010938;28;20045;-82
2022/01/29 11:48:38;;;;;;;1.30;0.28;;;20.50;46.40;;;;;;5010639;28;20108;-82
2022/01/29 11:51:08;;;;;;;1.58;0.30;;;20.60;46.40;;;;;;5010870;28;20135;-82
2022/01/29 11:53:49;;;;;;;0.52;0.20;;;20.60;46.40;;;;;;5011427;28;20053;-82
2022/01/29 11:56:29;;;;;;;1.60;0.40;;;20.80;46.50;;;;;;5011537;28;20727;-83
2022/01/29 11:59:17;;;;;;;1.58;0.20;;;20.60;46.40;;;;;;5008871;28;20045;-82
2022/01/29 12:01:42;;;;;;;0.77;0.20;;;20.60;46.40;;;;;;5043086;28;20201;-83
2022/01/29 12:04:08;;;;;;;1.40;0.28;;;20.60;46.30;;;;;;5012278;28;20578;-83
2022/01/29 12:06:38;;;;;;;1.90;0.30;;;20.50;46.30;;;;;;5026373;28;20492;-83
2022/01/29 12:09:25;;;;;;;0.93;0.20;;;20.50;46.30;;;;;;5011359;28;20042;-82
2022/01/29 12:12:17;;;;;;;1.73;0.30;;;20.60;46.30;;;;;;5010186;28;20515;-83
2022/01/29 12:14:43;;;;;;;1.35;0.40;;;20.50;46.30;;;;;;5008639;28;20065;-83
2022/01/29 12:17:08;;;;;;;1.10;0.25;;;20.50;46.30;;;;;;5011037;28;20084;-82
2022/01/29 12:19:39;;;;;;;1.75;0.30;;;20.50;46.30;;;;;;5006994;28;20072;-82
2022/01/29 12:22:19;;;;;;;0.98;0.22;;;20.50;46.30;;;;;;5001831;28;20406;-83
2022/01/29 12:24:48;;;;;;;1.52;0.30;;;20.50;46.30;;;;;;4989764;28;20048;-82
2022/01/29 12:27:14;;;;;;;1.00;0.40;;;21.40;46.80;;;;;;4990781;28;20717;-82
2022/01/29 12:29:39;;;;;;;1.55;0.40;;;20.50;46.30;;;;;;4991710;28;20050;-83
2022/01/29 12:32:05;;;;;;;1.13;0.43;;;20.50;46.30;;;;;;4991671;28;20642;-83
2022/01/29 12:34:31;;;;;;;1.38;0.38;;;20.50;46.30;;;;;;4990783;28;20060;-82
2022/01/29 12:37:16;;;;;;;0.70;0.20;;;20.50;46.30;;;;;;4991472;28;20066;-82
2022/01/29 12:39:44;;;;;;;1.25;0.30;;;20.50;46.30;;;;;;4991293;28;20057;-81
2022/01/29 12:42:26;;;;;;;1.33;0.30;;;20.50;46.30;;;;;;5007287;28;20124;-80
2022/01/29 12:44:57;;;;;;;1.17;0.40;;;20.50;46.40;;;;;;5003267;28;20042;-84
2022/01/29 12:47:27;;;;;;;1.35;0.30;;;20.50;46.30;;;;;;5015476;28;20045;-82
2022/01/29 12:49:53;;;;;;;3.22;0.60;;;20.50;46.30;;;;;;5006612;28;20532;-85
2022/01/29 12:52:18;;;;;;;6.10;0.70;;;20.50;46.60;;;;;;4844827;28;26311;-85
2022/01/29 12:54:58;;;;;;;3.85;1.05;;;20.50;47.50;;;;;;4837525;28;20443;-85
2022/01/29 12:57:24;;;;;;;2.50;0.40;;;20.50;47.10;;;;;;5008926;28;20456;-85
2022/01/29 12:59:50;;;;;;;5.55;0.93;;;20.50;47.30;;;;;;5009248;28;20100;-84